createdAt,value
2023-03-13T00:01:28.374Z,8.12
2023-03-13T00:03:56.577Z,8.12
2023-03-13T00:06:26.696Z,8.09
2023-03-13T00:08:55.864Z,8.07
2023-03-13T00:11:23.570Z,8.07
2023-03-13T00:13:55.918Z,8.06
2023-03-13T00:16:24.170Z,8.03
2023-03-13T00:18:54.551Z,7.99
2023-03-13T00:21:25.503Z,7.98
2023-03-13T00:23:53.240Z,7.96
2023-03-13T00:26:23.284Z,7.95
2023-03-13T00:28:52.611Z,7.93
2023-03-13T00:31:26.425Z,7.93
2023-03-13T00:33:58.136Z,7.94
2023-03-13T00:36:28.065Z,7.93
2023-03-13T00:38:57.281Z,7.92
2023-03-13T00:41:30.155Z,7.92
2023-03-13T00:43:58.158Z,7.91
2023-03-13T00:46:28.108Z,7.90
2023-03-13T00:48:55.964Z,7.91
2023-03-13T00:51:28.000Z,7.91
2023-03-13T00:53:57.633Z,7.90
2023-03-13T00:56:25.435Z,7.90
2023-03-13T00:58:53.181Z,7.90
2023-03-13T01:01:25.403Z,7.91
2023-03-13T01:04:04.966Z,7.92
2023-03-13T01:06:34.345Z,7.92
2023-03-13T01:09:02.442Z,7.93
2023-03-13T01:11:34.947Z,7.93
2023-03-13T01:14:05.371Z,7.92
2023-03-13T01:16:35.224Z,7.90
2023-03-13T01:19:05.844Z,7.93
2023-03-13T01:21:33.638Z,7.91
2023-03-13T01:24:01.715Z,7.88
2023-03-13T01:26:29.908Z,7.90
2023-03-13T01:28:58.266Z,7.88
2023-03-13T01:31:30.033Z,7.88
2023-03-13T01:34:03.693Z,7.89
2023-03-13T01:36:31.956Z,7.87
2023-03-13T01:39:01.346Z,7.90
2023-03-13T01:41:31.544Z,7.89
2023-03-13T01:43:59.947Z,7.90
2023-03-13T01:46:29.401Z,7.89
2023-03-13T01:48:57.101Z,7.88
2023-03-13T01:51:27.830Z,7.88
2023-03-13T01:54:34.010Z,7.87
2023-03-13T01:57:28.031Z,7.86
2023-03-13T02:00:02.844Z,7.87
2023-03-13T02:02:31.501Z,7.87
2023-03-13T02:05:04.379Z,7.88
2023-03-13T02:07:40.273Z,7.89
2023-03-13T02:10:10.191Z,7.92
2023-03-13T02:12:41.000Z,7.94
2023-03-13T02:15:11.519Z,7.96
2023-03-13T02:17:40.651Z,7.98
2023-03-13T02:20:09.102Z,7.98
2023-03-13T02:22:48.850Z,8.00
2023-03-13T02:25:25.562Z,8.01
2023-03-13T02:28:01.500Z,8.01
2023-03-13T02:30:29.653Z,8.00
2023-03-13T02:32:57.698Z,8.02
2023-03-13T02:35:25.504Z,8.01
2023-03-13T02:37:58.160Z,8.02
2023-03-13T02:40:30.542Z,8.04
2023-03-13T02:43:01.708Z,8.05
2023-03-13T02:45:29.771Z,8.06
2023-03-13T02:47:57.431Z,8.08
2023-03-13T02:50:25.626Z,8.09
2023-03-13T02:53:04.811Z,8.09
2023-03-13T02:55:39.565Z,8.12
2023-03-13T02:58:07.419Z,8.12
2023-03-13T03:00:35.425Z,8.14
2023-03-13T03:03:03.116Z,8.15
2023-03-13T03:05:30.803Z,8.13
2023-03-13T03:07:58.454Z,8.14
2023-03-13T03:10:26.218Z,8.13
2023-03-13T03:12:54.020Z,8.09
2023-03-13T03:15:21.801Z,8.06
2023-03-13T03:17:49.437Z,8.06
2023-03-13T03:20:17.069Z,8.03
2023-03-13T03:22:44.763Z,8.00
2023-03-13T03:25:12.455Z,7.98
2023-03-13T03:27:40.193Z,8.00
2023-03-13T03:30:08.530Z,7.99
2023-03-13T03:32:36.355Z,7.98
2023-03-13T03:35:04.309Z,7.96
2023-03-13T03:37:32.047Z,7.92
2023-03-13T03:39:59.731Z,7.90
2023-03-13T03:42:27.426Z,7.86
2023-03-13T03:44:55.109Z,7.80
2023-03-13T03:47:23.036Z,7.76
2023-03-13T03:49:50.760Z,7.73
2023-03-13T03:52:18.543Z,7.70
2023-03-13T03:54:46.267Z,7.69
2023-03-13T03:57:14.008Z,7.65
2023-03-13T03:59:41.732Z,7.65
2023-03-13T04:02:09.570Z,7.65
2023-03-13T04:04:37.370Z,7.66
2023-03-13T04:07:05.196Z,7.67
2023-03-13T04:09:33.014Z,7.68
2023-03-13T04:12:00.759Z,7.70
2023-03-13T04:14:28.384Z,7.74
2023-03-13T04:16:56.074Z,7.76
2023-03-13T04:19:23.984Z,7.79
2023-03-13T04:21:51.778Z,7.79
2023-03-13T04:24:19.552Z,7.78
2023-03-13T04:26:47.326Z,7.80
2023-03-13T04:29:15.045Z,7.81
2023-03-13T04:31:42.675Z,7.81
2023-03-13T04:34:10.382Z,7.82
2023-03-13T04:36:38.088Z,7.83
2023-03-13T04:39:05.891Z,7.84
2023-03-13T04:41:33.567Z,7.86
2023-03-13T04:44:01.257Z,7.87
2023-03-13T04:46:29.104Z,7.89
2023-03-13T04:48:56.850Z,7.89
2023-03-13T04:51:24.523Z,7.92
2023-03-13T04:53:52.301Z,7.93
2023-03-13T04:56:41.609Z,8.01
2023-03-13T04:59:13.173Z,8.11
2023-03-13T05:01:41.631Z,8.23
2023-03-13T05:04:09.799Z,8.37
2023-03-13T05:06:37.586Z,8.50
2023-03-13T05:09:05.626Z,8.62
2023-03-13T05:11:33.759Z,8.74
2023-03-13T05:14:01.430Z,8.85
2023-03-13T05:16:29.321Z,8.94
2023-03-13T05:18:57.080Z,9.03
2023-03-13T05:21:24.847Z,9.13
2023-03-13T05:23:52.602Z,9.19
2023-03-13T05:26:20.284Z,9.25
2023-03-13T05:28:48.013Z,9.36
2023-03-13T05:31:15.846Z,9.44
2023-03-13T05:33:43.593Z,9.49
2023-03-13T05:36:11.349Z,9.56
2023-03-13T05:38:39.084Z,9.62
2023-03-13T05:41:06.761Z,9.68
2023-03-13T05:43:34.430Z,9.73
2023-03-13T05:46:02.207Z,9.79
2023-03-13T05:48:29.927Z,9.83
2023-03-13T05:50:57.581Z,9.87
2023-03-13T05:53:25.332Z,9.89
2023-03-13T05:55:53.065Z,9.91
2023-03-13T05:58:20.775Z,9.92
2023-03-13T06:00:49.772Z,9.94
2023-03-13T06:03:17.407Z,9.94
2023-03-13T06:05:45.115Z,9.94
2023-03-13T06:08:12.941Z,9.95
2023-03-13T06:10:40.601Z,9.97
2023-03-13T06:13:19.428Z,10.00
2023-03-13T06:15:58.502Z,10.00
2023-03-13T06:18:28.159Z,10.01
2023-03-13T06:21:03.315Z,10.02
2023-03-13T06:23:31.063Z,10.02
2023-03-13T06:25:58.785Z,10.08
2023-03-13T06:28:26.454Z,10.08
2023-03-13T06:30:54.213Z,10.10
2023-03-13T06:33:22.606Z,10.11
2023-03-13T06:35:56.693Z,10.14
2023-03-13T06:38:29.142Z,10.13
2023-03-13T06:40:57.273Z,10.16
2023-03-13T06:43:25.298Z,10.16
2023-03-13T06:45:53.211Z,10.19
2023-03-13T06:48:21.406Z,10.19
2023-03-13T06:50:49.114Z,10.19
2023-03-13T06:53:19.818Z,10.22
2023-03-13T06:55:48.290Z,10.19
2023-03-13T06:58:31.111Z,10.20
2023-03-13T07:01:00.497Z,10.19
2023-03-13T07:03:28.269Z,10.21
2023-03-13T07:05:59.653Z,10.23
2023-03-13T07:08:27.836Z,10.29
2023-03-13T07:10:59.728Z,10.35
2023-03-13T07:13:27.779Z,10.43
2023-03-13T07:15:55.954Z,10.49
2023-03-13T07:18:24.432Z,10.57
2023-03-13T07:20:56.915Z,10.63
2023-03-13T07:23:26.129Z,10.68
2023-03-13T07:26:01.580Z,10.66
2023-03-13T07:28:31.853Z,10.59
2023-03-13T07:31:14.710Z,10.49
2023-03-13T07:33:42.785Z,10.78
2023-03-13T07:36:11.352Z,10.85
2023-03-13T07:38:39.359Z,10.82
2023-03-13T07:41:07.367Z,10.74
2023-03-13T07:43:35.119Z,10.66
2023-03-13T07:46:07.399Z,10.66
2023-03-13T07:48:40.465Z,10.57
2023-03-13T07:51:12.788Z,10.51
2023-03-13T07:53:40.562Z,10.52
2023-03-13T07:56:11.431Z,10.53
2023-03-13T07:58:40.962Z,10.57
2023-03-13T08:01:18.616Z,10.58
2023-03-13T08:03:50.319Z,10.67
2023-03-13T08:06:24.526Z,10.74
2023-03-13T08:08:53.532Z,10.75
2023-03-13T08:11:25.989Z,10.83
2023-03-13T08:13:54.802Z,10.91
2023-03-13T08:16:24.950Z,10.95
2023-03-13T08:18:56.256Z,11.02
2023-03-13T08:21:26.659Z,11.12
2023-03-13T08:23:56.577Z,11.23
2023-03-13T08:26:26.459Z,11.37
2023-03-13T08:28:59.820Z,11.55
2023-03-13T08:31:33.415Z,11.76
2023-03-13T08:34:01.580Z,11.93
2023-03-13T08:36:32.521Z,12.11
2023-03-13T08:39:03.071Z,12.27
2023-03-13T08:41:34.945Z,12.45
2023-03-13T08:44:03.488Z,12.65
2023-03-13T08:46:32.878Z,12.88
2023-03-13T08:49:00.968Z,13.04
2023-03-13T08:51:30.132Z,13.12
2023-03-13T08:53:58.256Z,13.18
2023-03-13T08:56:29.094Z,13.24
2023-03-13T08:58:59.915Z,13.30
2023-03-13T09:01:30.241Z,13.36
2023-03-13T09:03:58.387Z,13.44
2023-03-13T09:06:26.685Z,13.47
2023-03-13T09:08:54.453Z,13.43
2023-03-13T09:11:22.940Z,13.38
2023-03-13T09:13:52.142Z,13.41
2023-03-13T09:16:26.080Z,13.44
2023-03-13T09:18:55.138Z,13.48
2023-03-13T09:21:25.701Z,13.50
2023-03-13T09:23:53.743Z,13.53
2023-03-13T09:26:23.490Z,13.63
2023-03-13T09:28:52.901Z,13.71
2023-03-13T09:31:32.132Z,13.80
2023-03-13T09:34:00.944Z,13.86
2023-03-13T09:36:29.764Z,13.94
2023-03-13T09:39:00.048Z,14.01
2023-03-13T09:41:45.042Z,14.06
2023-03-13T09:44:20.767Z,14.12
2023-03-13T09:46:54.164Z,14.17
2023-03-13T09:49:43.535Z,14.23
2023-03-13T09:52:20.543Z,14.30
2023-03-13T09:54:55.683Z,14.38
2023-03-13T09:58:05.401Z,14.48
2023-03-13T10:00:40.606Z,14.61
2023-03-13T10:03:14.307Z,14.77
2023-03-13T10:05:49.092Z,14.87
2023-03-13T10:08:28.850Z,14.93
2023-03-13T10:11:16.243Z,15.01
2023-03-13T10:14:29.115Z,15.06
2023-03-13T10:17:21.186Z,15.14
2023-03-13T10:19:56.985Z,15.21
2023-03-13T10:22:27.912Z,15.31
2023-03-13T10:25:00.717Z,15.39
2023-03-13T10:27:28.502Z,15.43
2023-03-13T10:29:56.214Z,15.52
2023-03-13T10:32:23.943Z,15.60
2023-03-13T10:34:56.650Z,15.75
2023-03-13T10:37:27.773Z,15.85
2023-03-13T10:39:56.702Z,15.99
2023-03-13T10:42:36.774Z,15.97
2023-03-13T10:45:07.104Z,16.03
2023-03-13T10:47:36.488Z,16.06
2023-03-13T10:50:05.992Z,16.10
2023-03-13T10:52:45.359Z,16.16
2023-03-13T10:55:21.107Z,16.24
2023-03-13T10:58:04.086Z,16.32
2023-03-13T11:00:34.691Z,16.38
2023-03-13T11:03:07.266Z,16.44
2023-03-13T11:05:42.151Z,16.49
2023-03-13T11:08:30.280Z,16.57
2023-03-13T11:11:01.299Z,16.72
2023-03-13T11:13:38.034Z,16.79
2023-03-13T11:16:24.629Z,16.83
2023-03-13T11:19:09.318Z,16.91
2023-03-13T11:21:55.821Z,16.95
2023-03-13T11:24:40.357Z,17.01
2023-03-13T11:27:31.454Z,17.07
2023-03-13T11:30:14.484Z,17.18
2023-03-13T11:33:02.778Z,17.28
2023-03-13T11:35:45.766Z,17.30
2023-03-13T11:38:45.391Z,17.35
2023-03-13T11:41:54.467Z,17.35
2023-03-13T11:44:58.267Z,17.41
2023-03-13T11:47:52.308Z,17.46
2023-03-13T11:50:25.282Z,17.60
2023-03-13T11:53:21.252Z,17.70
2023-03-13T11:56:02.809Z,17.71
2023-03-13T11:59:04.057Z,17.70
2023-03-13T12:01:55.456Z,17.75
2023-03-13T12:04:39.836Z,17.75
2023-03-13T12:07:27.438Z,17.69
2023-03-13T12:10:15.647Z,17.72
2023-03-13T12:13:25.352Z,17.65
2023-03-13T12:15:57.927Z,17.70
2023-03-13T12:18:37.880Z,17.74
2023-03-13T12:21:20.540Z,17.78
2023-03-13T12:24:11.281Z,17.83
2023-03-13T12:26:48.054Z,17.89
2023-03-13T12:29:38.168Z,17.96
2023-03-13T12:32:19.533Z,18.05
2023-03-13T12:35:21.675Z,18.07
2023-03-13T12:38:03.729Z,18.11
2023-03-13T12:40:40.139Z,18.17
2023-03-13T12:43:12.738Z,18.18
2023-03-13T12:45:55.568Z,18.26
2023-03-13T12:48:29.197Z,18.32
2023-03-13T12:51:27.344Z,18.40
2023-03-13T12:54:10.282Z,18.45
2023-03-13T12:56:53.434Z,18.58
2023-03-13T12:59:28.746Z,18.66
2023-03-13T13:01:57.708Z,18.74
2023-03-13T13:04:29.583Z,18.80
2023-03-13T13:07:09.027Z,18.91
2023-03-13T13:10:02.256Z,18.97
2023-03-13T13:12:31.270Z,18.99
2023-03-13T13:15:05.001Z,19.03
2023-03-13T13:17:41.891Z,19.03
2023-03-13T13:20:31.707Z,19.08
2023-03-13T13:23:25.426Z,19.14
2023-03-13T13:25:54.813Z,19.19
2023-03-13T13:28:34.897Z,19.20
2023-03-13T13:31:03.501Z,19.17
2023-03-13T13:33:32.029Z,19.17
2023-03-13T13:36:11.656Z,19.15
2023-03-13T13:38:43.188Z,19.13
2023-03-13T13:41:10.867Z,19.11
2023-03-13T13:43:40.035Z,19.15
2023-03-13T13:46:24.652Z,19.21
2023-03-13T13:49:10.629Z,19.24
2023-03-13T13:51:42.670Z,19.35
2023-03-13T13:54:19.394Z,19.45
2023-03-13T13:56:56.272Z,19.55
2023-03-13T13:59:32.010Z,19.56
2023-03-13T14:02:33.334Z,19.60
2023-03-13T14:05:17.175Z,19.67
2023-03-13T14:08:09.539Z,19.71
2023-03-13T14:10:43.381Z,19.74
2023-03-13T14:13:16.282Z,19.79
2023-03-13T14:15:46.831Z,19.80
2023-03-13T14:18:31.908Z,19.84
2023-03-13T14:21:02.461Z,19.86
2023-03-13T14:23:43.848Z,19.57
2023-03-13T14:26:11.794Z,19.20
2023-03-13T14:28:44.718Z,18.83
2023-03-13T14:31:23.377Z,18.48
2023-03-13T14:33:51.495Z,18.07
2023-03-13T14:36:19.570Z,17.63
2023-03-13T14:38:59.212Z,17.28
2023-03-13T14:41:44.106Z,17.04
2023-03-13T14:44:26.870Z,16.82
2023-03-13T14:46:58.081Z,16.56
2023-03-13T14:49:28.601Z,16.39
2023-03-13T14:52:05.650Z,16.18
2023-03-13T14:54:39.164Z,15.99
2023-03-13T14:57:17.393Z,15.81
2023-03-13T14:59:45.570Z,15.68
2023-03-13T15:02:19.365Z,15.55
2023-03-13T15:05:04.939Z,15.49
2023-03-13T15:07:42.435Z,15.43
2023-03-13T15:10:20.206Z,15.41
2023-03-13T15:12:48.065Z,15.42
2023-03-13T15:15:15.894Z,15.42
2023-03-13T15:17:43.822Z,15.44
2023-03-13T15:20:14.839Z,15.45
2023-03-13T15:22:45.380Z,15.45
2023-03-13T15:25:23.849Z,15.46
2023-03-13T15:27:52.340Z,15.52
2023-03-13T15:30:24.659Z,15.57
2023-03-13T15:32:53.239Z,15.62
2023-03-13T15:35:34.465Z,15.67
2023-03-13T15:38:03.888Z,15.71
2023-03-13T15:40:33.208Z,15.77
2023-03-13T15:43:01.443Z,15.82
2023-03-13T15:45:29.303Z,15.85
2023-03-13T15:47:57.126Z,15.86
2023-03-13T15:50:30.975Z,15.84
2023-03-13T15:53:01.970Z,15.83
2023-03-13T15:55:30.551Z,15.81
2023-03-13T15:57:58.407Z,15.82
2023-03-13T16:00:27.296Z,15.80
2023-03-13T16:02:54.996Z,15.74
2023-03-13T16:05:22.795Z,15.66
2023-03-13T16:07:50.546Z,15.57
2023-03-13T16:10:26.998Z,15.55
2023-03-13T16:12:55.587Z,15.52
2023-03-13T16:15:23.475Z,15.45
2023-03-13T16:17:51.814Z,15.41
2023-03-13T16:20:22.754Z,15.41
2023-03-13T16:22:53.408Z,15.44
2023-03-13T16:25:21.428Z,15.40
2023-03-13T16:27:49.492Z,15.35
2023-03-13T16:30:25.436Z,15.29
2023-03-13T16:32:53.472Z,15.25
2023-03-13T16:35:21.712Z,15.19
2023-03-13T16:37:51.903Z,15.14
2023-03-13T16:40:25.298Z,15.10
2023-03-13T16:42:53.270Z,15.03
2023-03-13T16:45:21.145Z,14.96
2023-03-13T16:47:49.323Z,14.91
2023-03-13T16:50:33.653Z,14.85
2023-03-13T16:53:02.143Z,14.76
2023-03-13T16:55:31.530Z,14.69
2023-03-13T16:58:00.042Z,14.62
2023-03-13T17:00:30.363Z,14.56
2023-03-13T17:02:59.852Z,14.51
2023-03-13T17:05:28.187Z,14.45
2023-03-13T17:07:56.482Z,14.40
2023-03-13T17:10:25.425Z,14.34
2023-03-13T17:12:53.464Z,14.30
2023-03-13T17:15:21.466Z,14.27
2023-03-13T17:17:52.764Z,14.21
2023-03-13T17:20:26.098Z,14.17
2023-03-13T17:22:54.844Z,14.13
2023-03-13T17:25:23.251Z,14.08
2023-03-13T17:27:52.751Z,14.00
2023-03-13T17:30:29.433Z,13.95
2023-03-13T17:32:57.815Z,13.87
2023-03-13T17:35:26.976Z,13.81
2023-03-13T17:37:54.916Z,13.74
2023-03-13T17:40:26.104Z,13.70
2023-03-13T17:42:54.319Z,13.66
2023-03-13T17:45:22.206Z,13.61
2023-03-13T17:47:52.630Z,13.57
2023-03-13T17:50:24.877Z,13.52
2023-03-13T17:52:52.577Z,13.49
2023-03-13T17:55:20.850Z,13.44
2023-03-13T17:57:53.267Z,13.40
2023-03-13T18:00:27.212Z,13.32
2023-03-13T18:02:54.923Z,13.22
2023-03-13T18:05:23.264Z,13.21
2023-03-13T18:07:51.727Z,13.18
2023-03-13T18:10:23.030Z,13.13
2023-03-13T18:12:52.481Z,13.06
2023-03-13T18:15:21.683Z,13.01
2023-03-13T18:17:50.059Z,12.97
2023-03-13T18:20:21.005Z,12.93
2023-03-13T18:22:49.036Z,12.89
2023-03-13T18:25:17.057Z,12.82
2023-03-13T18:27:44.945Z,12.74
2023-03-13T18:30:20.083Z,12.67
2023-03-13T18:32:48.037Z,12.62
2023-03-13T18:35:16.632Z,12.55
2023-03-13T18:37:46.451Z,12.46
2023-03-13T18:40:40.606Z,12.35
2023-03-13T18:43:08.304Z,12.28
2023-03-13T18:45:37.441Z,12.22
2023-03-13T18:48:05.258Z,12.16
2023-03-13T18:50:33.704Z,12.05
2023-03-13T18:53:01.734Z,11.99
2023-03-13T18:55:31.432Z,11.94
2023-03-13T18:57:59.107Z,11.90
2023-03-13T19:00:31.050Z,11.83
2023-03-13T19:02:58.889Z,11.79
2023-03-13T19:05:26.702Z,11.81
2023-03-13T19:07:54.663Z,11.81
2023-03-13T19:10:31.236Z,11.80
2023-03-13T19:12:58.997Z,11.78
2023-03-13T19:15:29.857Z,11.75
2023-03-13T19:18:03.063Z,11.73
2023-03-13T19:20:31.231Z,11.71
2023-03-13T19:23:01.629Z,11.70
2023-03-13T19:25:30.455Z,11.68
2023-03-13T19:27:58.228Z,11.67
2023-03-13T19:30:27.103Z,11.65
2023-03-13T19:32:54.932Z,11.66
2023-03-13T19:35:22.892Z,11.64
2023-03-13T19:37:51.055Z,11.65
2023-03-13T19:40:22.216Z,11.63
2023-03-13T19:42:50.001Z,11.64
2023-03-13T19:45:22.902Z,11.63
2023-03-13T19:47:50.702Z,11.64
2023-03-13T19:50:24.601Z,11.62
2023-03-13T19:52:52.285Z,11.61
2023-03-13T19:55:20.417Z,11.59
2023-03-13T19:57:48.126Z,11.57
2023-03-13T20:00:28.513Z,11.56
2023-03-13T20:02:56.698Z,11.54
2023-03-13T20:05:25.216Z,11.49
2023-03-13T20:07:55.003Z,11.47
2023-03-13T20:10:23.374Z,11.46
2023-03-13T20:12:51.104Z,11.49
2023-03-13T20:15:19.163Z,11.50
2023-03-13T20:17:46.938Z,11.50
2023-03-13T20:20:15.049Z,11.51
2023-03-13T20:22:43.164Z,11.53
2023-03-13T20:25:11.938Z,11.53
2023-03-13T20:27:40.495Z,11.49
2023-03-13T20:30:09.064Z,11.48
2023-03-13T20:32:39.480Z,11.49
2023-03-13T20:35:15.277Z,11.53
2023-03-13T20:37:43.027Z,11.52
2023-03-13T20:40:14.464Z,11.55
2023-03-13T20:42:42.245Z,11.57
2023-03-13T20:45:10.882Z,11.56
2023-03-13T20:47:38.703Z,11.43
2023-03-13T20:50:06.810Z,11.40
2023-03-13T20:52:34.590Z,11.45
2023-03-13T20:55:02.283Z,11.61
2023-03-13T20:57:30.212Z,11.85
2023-03-13T20:59:58.081Z,12.06
2023-03-13T21:02:25.776Z,12.22
2023-03-13T21:04:53.854Z,12.37
2023-03-13T21:07:22.270Z,12.49
2023-03-13T21:09:50.061Z,12.56
2023-03-13T21:12:17.807Z,12.63
2023-03-13T21:14:45.960Z,12.70
2023-03-13T21:17:14.583Z,12.76
2023-03-13T21:19:44.165Z,12.76
2023-03-13T21:22:12.750Z,12.73
2023-03-13T21:24:40.794Z,12.72
2023-03-13T21:27:08.493Z,12.68
2023-03-13T21:29:36.429Z,12.67
2023-03-13T21:32:04.155Z,12.63
2023-03-13T21:34:32.048Z,12.57
2023-03-13T21:36:59.838Z,12.57
2023-03-13T21:39:27.545Z,12.55
2023-03-13T21:41:55.483Z,12.49
2023-03-13T21:44:23.725Z,12.47
2023-03-13T21:46:53.489Z,12.41
2023-03-13T21:49:21.365Z,12.39
2023-03-13T21:51:49.019Z,12.39
2023-03-13T21:54:16.736Z,12.38
2023-03-13T21:56:44.413Z,12.36
2023-03-13T21:59:12.140Z,12.33
2023-03-13T22:01:39.817Z,12.33
2023-03-13T22:04:07.481Z,12.30
2023-03-13T22:06:35.458Z,12.26
2023-03-13T22:09:04.870Z,12.25
2023-03-13T22:11:33.353Z,12.21
2023-03-13T22:14:01.022Z,12.21
2023-03-13T22:16:29.495Z,12.15
2023-03-13T22:18:57.253Z,12.14
2023-03-13T22:21:25.395Z,12.09
2023-03-13T22:23:53.109Z,12.00
2023-03-13T22:26:20.866Z,11.95
2023-03-13T22:28:48.597Z,11.89
2023-03-13T22:31:16.507Z,11.80
2023-03-13T22:33:44.235Z,11.72
2023-03-13T22:36:12.238Z,11.61
2023-03-13T22:38:40.968Z,11.45
2023-03-13T22:41:12.437Z,11.35
2023-03-13T22:43:40.301Z,11.20
2023-03-13T22:46:08.470Z,11.02
2023-03-13T22:48:37.305Z,10.86
2023-03-13T22:51:10.879Z,10.74
2023-03-13T22:53:40.755Z,10.59
2023-03-13T22:56:13.068Z,10.49
2023-03-13T22:58:42.027Z,10.37
2023-03-13T23:01:12.026Z,10.29
2023-03-13T23:03:39.820Z,10.22
2023-03-13T23:06:16.494Z,10.14
2023-03-13T23:08:44.160Z,10.07
2023-03-13T23:11:12.347Z,10.02
2023-03-13T23:13:40.212Z,9.96
2023-03-13T23:16:10.010Z,9.89
2023-03-13T23:18:39.243Z,9.83
2023-03-13T23:21:09.483Z,9.76
2023-03-13T23:23:37.945Z,9.69
2023-03-13T23:26:09.633Z,9.57
2023-03-13T23:28:38.782Z,9.38
2023-03-13T23:31:18.224Z,9.10
2023-03-13T23:33:46.720Z,8.85
2023-03-13T23:36:17.703Z,8.67
2023-03-13T23:38:49.121Z,8.50
2023-03-13T23:41:16.853Z,8.36
2023-03-13T23:43:44.576Z,8.24
2023-03-13T23:46:23.482Z,8.13
2023-03-13T23:48:56.052Z,7.99
2023-03-13T23:51:24.609Z,7.88
2023-03-13T23:53:52.854Z,7.79
2023-03-13T23:56:20.720Z,7.70
2023-03-13T23:58:48.486Z,7.63
